PWSweather.com
Personal Weather Stations
Station Observations
KMAWOBUR2
West Side, Woburn, MA 01801

West SideWoburn, MA 01801

Lat: 42.458, Lon: -71.1955

Elevation: 160

Station Type: DAVIS/Vantage Pro2

http://pauland.net

Latest ConditionsUpdated 9:30:05 AM GMT Friday, Oct 24, 2014
Currently Today's Max Today's Min Today's Average
Temperature 48.8°F9.3°C 50.7°F10.4°C 48.5°F9.2°C 49.2°F9.6°C
Dew Point 48.2°F9.0°C 49.8°F9.9°C 47.9°F8.8°C 48.5°F9.2°C
Winds Calm Calm 9.0 mph N14.5 kmh N - 1.9 mph 3.1 kmh
Wind Gusts 3.0 mph4.8 kmh 14.0 mph22.5 kmh - -
Humidity 98% 98% 97% 98%
Pressure 29.65 in1004.1 mb 29.65 in1004.1 mb 29.63 in1003.4 mb -
Precipitation - 0.09 in2.3 mm - -
Hour Temp Dew Point Humidity Winds Wind Gusts Pressure Precip Precip Rate Daily Precip Total
09:30 AM 48.8°F9.3°C 48.2°F9.0°C 98% Calm Calm 3.0 mph4.8 kmh 29.65 in1004.1 mb 0.02 in0.5 mm 0.00 in/hr0.0 mm/hr 0.09 in2.3 mm
09:25 AM 48.8°F9.3°C 48.2°F9.0°C 98% Calm Calm 6.0 mph9.7 kmh 29.65 in1004.1 mb 0.02 in0.5 mm 0.00 in/hr0.0 mm/hr 0.09 in2.3 mm
09:20 AM 48.8°F9.3°C 48.2°F9.0°C 98% Calm Calm 5.0 mph8.0 kmh 29.65 in1004.1 mb 0.02 in0.5 mm 0.00 in/hr0.0 mm/hr 0.09 in2.3 mm
09:15 AM 48.8°F9.3°C 48.2°F9.0°C 98% 5.0 mph NW8.0 kmh NW 8.0 mph12.9 kmh 29.65 in1004.1 mb 0.02 in0.5 mm 0.12 in/hr3.0 mm/hr 0.09 in2.3 mm
09:10 AM 48.8°F9.3°C 48.2°F9.0°C 98% 1.0 mph WNW1.6 kmh WNW 4.0 mph6.4 kmh 29.64 in1003.7 mb 0.01 in0.3 mm 0.00 in/hr0.0 mm/hr 0.08 in2.0 mm
09:05 AM 48.8°F9.3°C 48.2°F9.0°C 98% 1.0 mph NW1.6 kmh NW 8.0 mph12.9 kmh 29.64 in1003.7 mb 0.01 in0.3 mm 0.00 in/hr0.0 mm/hr 0.08 in2.0 mm
09:00 AM 48.8°F9.3°C 48.2°F9.0°C 98% Calm Calm 5.0 mph8.0 kmh 29.64 in1003.7 mb 0.01 in0.3 mm 0.00 in/hr0.0 mm/hr 0.08 in2.0 mm
08:55 AM 48.8°F9.3°C 48.2°F9.0°C 98% Calm Calm 8.0 mph12.9 kmh 29.64 in1003.7 mb 0.01 in0.3 mm 0.00 in/hr0.0 mm/hr 0.08 in2.0 mm
08:50 AM 48.8°F9.3°C 48.2°F9.0°C 98% Calm Calm 10.0 mph16.1 kmh 29.64 in1003.7 mb 0.01 in0.3 mm 0.12 in/hr3.0 mm/hr 0.08 in2.0 mm
08:45 AM 48.8°F9.3°C 48.2°F9.0°C 98% 1.0 mph N1.6 kmh N 7.0 mph11.3 kmh 29.64 in1003.7 mb 0.00 in0.0 mm 0.00 in/hr0.0 mm/hr 0.07 in1.8 mm
08:40 AM 48.8°F9.3°C 48.2°F9.0°C 98% Calm Calm 6.0 mph9.7 kmh 29.64 in1003.7 mb 0.01 in0.3 mm 0.00 in/hr0.0 mm/hr 0.07 in1.8 mm
08:35 AM 48.8°F9.3°C 48.2°F9.0°C 98% Calm Calm 6.0 mph9.7 kmh 29.64 in1003.7 mb 0.01 in0.3 mm 0.00 in/hr0.0 mm/hr 0.07 in1.8 mm
08:30 AM 48.8°F9.3°C 48.2°F9.0°C 98% 3.0 mph N4.8 kmh N 7.0 mph11.3 kmh 29.64 in1003.7 mb 0.01 in0.3 mm 0.00 in/hr0.0 mm/hr 0.07 in1.8 mm
08:25 AM 48.8°F9.3°C 48.2°F9.0°C 98% Calm Calm 6.0 mph9.7 kmh 29.64 in1003.7 mb 0.02 in0.5 mm 0.00 in/hr0.0 mm/hr 0.07 in1.8 mm
08:20 AM 48.8°F9.3°C 48.2°F9.0°C 98% Calm Calm 4.0 mph6.4 kmh 29.64 in1003.7 mb 0.02 in0.5 mm 0.00 in/hr0.0 mm/hr 0.07 in1.8 mm
08:15 AM 48.8°F9.3°C 48.2°F9.0°C 98% 1.0 mph NNW1.6 kmh NNW 8.0 mph12.9 kmh 29.64 in1003.7 mb 0.03 in0.8 mm 0.00 in/hr0.0 mm/hr 0.07 in1.8 mm
08:10 AM 48.8°F9.3°C 48.2°F9.0°C 98% 2.0 mph NW3.2 kmh NW 5.0 mph8.0 kmh 29.64 in1003.7 mb 0.03 in0.8 mm 0.00 in/hr0.0 mm/hr 0.07 in1.8 mm
08:05 AM 48.8°F9.3°C 48.2°F9.0°C 98% Calm Calm 5.0 mph8.0 kmh 29.64 in1003.7 mb 0.03 in0.8 mm 0.00 in/hr0.0 mm/hr 0.07 in1.8 mm
08:00 AM 48.8°F9.3°C 48.2°F9.0°C 98% 4.0 mph N6.4 kmh N 4.0 mph6.4 kmh 29.64 in1003.7 mb 0.03 in0.8 mm 0.00 in/hr0.0 mm/hr 0.07 in1.8 mm
07:55 AM 48.8°F9.3°C 48.2°F9.0°C 98% Calm Calm 5.0 mph8.0 kmh 29.64 in1003.7 mb 0.03 in0.8 mm 0.00 in/hr0.0 mm/hr 0.07 in1.8 mm
07:50 AM 48.8°F9.3°C 48.2°F9.0°C 98% Calm Calm 8.0 mph12.9 kmh 29.64 in1003.7 mb 0.03 in0.8 mm 0.00 in/hr0.0 mm/hr 0.07 in1.8 mm
07:45 AM 48.8°F9.3°C 48.2°F9.0°C 98% Calm Calm 5.0 mph8.0 kmh 29.64 in1003.7 mb 0.03 in0.8 mm 0.12 in/hr3.0 mm/hr 0.07 in1.8 mm
07:40 AM 48.6°F9.2°C 48.0°F8.9°C 98% Calm Calm 3.0 mph4.8 kmh 29.63 in1003.4 mb 0.02 in0.5 mm 0.00 in/hr0.0 mm/hr 0.06 in1.5 mm
07:35 AM 48.6°F9.2°C 48.0°F8.9°C 98% Calm Calm 4.0 mph6.4 kmh 29.63 in1003.4 mb 0.03 in0.8 mm 0.00 in/hr0.0 mm/hr 0.06 in1.5 mm
07:30 AM 48.6°F9.2°C 48.0°F8.9°C 98% 3.0 mph NNW4.8 kmh NNW 4.0 mph6.4 kmh 29.63 in1003.4 mb 0.03 in0.8 mm 0.12 in/hr3.0 mm/hr 0.06 in1.5 mm
07:25 AM 48.6°F9.2°C 48.0°F8.9°C 98% Calm Calm 4.0 mph6.4 kmh 29.64 in1003.7 mb 0.02 in0.5 mm 0.00 in/hr0.0 mm/hr 0.05 in1.3 mm
07:20 AM 48.5°F9.2°C 47.9°F8.8°C 98% 1.0 mph NW1.6 kmh NW 5.0 mph8.0 kmh 29.64 in1003.7 mb 0.02 in0.5 mm 0.12 in/hr3.0 mm/hr 0.05 in1.3 mm
07:15 AM 48.5°F9.2°C 47.9°F8.8°C 98% Calm Calm 10.0 mph16.1 kmh 29.64 in1003.7 mb 0.01 in0.3 mm 0.00 in/hr0.0 mm/hr 0.04 in1.0 mm
07:10 AM 48.5°F9.2°C 47.9°F8.8°C 98% 2.0 mph N3.2 kmh N 6.0 mph9.7 kmh 29.63 in1003.4 mb 0.01 in0.3 mm 0.00 in/hr0.0 mm/hr 0.04 in1.0 mm
07:05 AM 48.5°F9.2°C 47.9°F8.8°C 98% Calm Calm 6.0 mph9.7 kmh 29.63 in1003.4 mb 0.01 in0.3 mm 0.00 in/hr0.0 mm/hr 0.04 in1.0 mm
07:00 AM 48.5°F9.2°C 47.9°F8.8°C 98% 2.0 mph NNW3.2 kmh NNW 4.0 mph6.4 kmh 29.63 in1003.4 mb 0.01 in0.3 mm 0.00 in/hr0.0 mm/hr 0.04 in1.0 mm
06:55 AM 48.5°F9.2°C 47.9°F8.8°C 98% 2.0 mph NNW3.2 kmh NNW 6.0 mph9.7 kmh 29.64 in1003.7 mb 0.02 in0.5 mm 0.00 in/hr0.0 mm/hr 0.04 in1.0 mm
06:50 AM 48.5°F9.2°C 47.9°F8.8°C 98% Calm Calm 8.0 mph12.9 kmh 29.64 in1003.7 mb 0.02 in0.5 mm 0.00 in/hr0.0 mm/hr 0.04 in1.0 mm
06:45 AM 48.5°F9.2°C 47.9°F8.8°C 98% 4.0 mph NNW6.4 kmh NNW 5.0 mph8.0 kmh 29.64 in1003.7 mb 0.02 in0.5 mm 0.00 in/hr0.0 mm/hr 0.04 in1.0 mm
06:40 AM 48.5°F9.2°C 47.9°F8.8°C 98% 1.0 mph NW1.6 kmh NW 6.0 mph9.7 kmh 29.64 in1003.7 mb 0.02 in0.5 mm 0.12 in/hr3.0 mm/hr 0.04 in1.0 mm
06:35 AM 48.5°F9.2°C 47.9°F8.8°C 98% 4.0 mph NNW6.4 kmh NNW 9.0 mph14.5 kmh 29.64 in1003.7 mb 0.01 in0.3 mm 0.00 in/hr0.0 mm/hr 0.03 in0.8 mm
06:30 AM 48.5°F9.2°C 47.9°F8.8°C 98% 1.0 mph NNW1.6 kmh NNW 8.0 mph12.9 kmh 29.64 in1003.7 mb 0.01 in0.3 mm 0.00 in/hr0.0 mm/hr 0.03 in0.8 mm
06:25 AM 48.5°F9.2°C 47.9°F8.8°C 98% Calm Calm 6.0 mph9.7 kmh 29.64 in1003.7 mb 0.01 in0.3 mm 0.00 in/hr0.0 mm/hr 0.03 in0.8 mm
06:20 AM 48.5°F9.2°C 47.9°F8.8°C 98% 1.0 mph N1.6 kmh N 6.0 mph9.7 kmh 29.64 in1003.7 mb 0.01 in0.3 mm 0.00 in/hr0.0 mm/hr 0.03 in0.8 mm
06:15 AM 48.5°F9.2°C 47.9°F8.8°C 98% 1.0 mph NNW1.6 kmh NNW 9.0 mph14.5 kmh 29.64 in1003.7 mb 0.01 in0.3 mm 0.00 in/hr0.0 mm/hr 0.03 in0.8 mm
06:10 AM 48.5°F9.2°C 47.9°F8.8°C 98% 1.0 mph ENE1.6 kmh ENE 8.0 mph12.9 kmh 29.64 in1003.7 mb 0.01 in0.3 mm 0.00 in/hr0.0 mm/hr 0.03 in0.8 mm
06:05 AM 48.5°F9.2°C 47.9°F8.8°C 98% 3.0 mph NW4.8 kmh NW 5.0 mph8.0 kmh 29.64 in1003.7 mb 0.01 in0.3 mm 0.00 in/hr0.0 mm/hr 0.03 in0.8 mm
06:00 AM 48.5°F9.2°C 47.9°F8.8°C 98% 1.0 mph N1.6 kmh N 8.0 mph12.9 kmh 29.64 in1003.7 mb 0.01 in0.3 mm 0.01 in/hr0.3 mm/hr 0.03 in0.8 mm
05:55 AM 48.5°F9.2°C 47.9°F8.8°C 98% 2.0 mph N3.2 kmh N 6.0 mph9.7 kmh 29.64 in1003.7 mb 0.00 in0.0 mm 0.00 in/hr0.0 mm/hr 0.02 in0.5 mm
05:50 AM 48.6°F9.2°C 48.0°F8.9°C 98% 5.0 mph NNW8.0 kmh NNW 10.0 mph16.1 kmh 29.64 in1003.7 mb 0.01 in0.3 mm 0.00 in/hr0.0 mm/hr 0.02 in0.5 mm
05:45 AM 48.6°F9.2°C 48.0°F8.9°C 98% Calm Calm 5.0 mph8.0 kmh 29.64 in1003.7 mb 0.01 in0.3 mm 0.00 in/hr0.0 mm/hr 0.02 in0.5 mm
05:40 AM 48.6°F9.2°C 48.0°F8.9°C 98% 1.0 mph NNW1.6 kmh NNW 6.0 mph9.7 kmh 29.64 in1003.7 mb 0.01 in0.3 mm 0.00 in/hr0.0 mm/hr 0.02 in0.5 mm
05:35 AM 48.6°F9.2°C 48.0°F8.9°C 98% 2.0 mph N3.2 kmh N 8.0 mph12.9 kmh 29.64 in1003.7 mb 0.01 in0.3 mm 0.00 in/hr0.0 mm/hr 0.02 in0.5 mm
05:30 AM 48.6°F9.2°C 48.0°F8.9°C 98% 4.0 mph NNW6.4 kmh NNW 8.0 mph12.9 kmh 29.64 in1003.7 mb 0.01 in0.3 mm 0.00 in/hr0.0 mm/hr 0.02 in0.5 mm
05:25 AM 48.6°F9.2°C 48.0°F8.9°C 98% Calm Calm 5.0 mph8.0 kmh 29.64 in1003.7 mb 0.01 in0.3 mm 0.00 in/hr0.0 mm/hr 0.02 in0.5 mm
05:20 AM 48.8°F9.3°C 48.2°F9.0°C 98% 1.0 mph NNW1.6 kmh NNW 8.0 mph12.9 kmh 29.64 in1003.7 mb 0.01 in0.3 mm 0.00 in/hr0.0 mm/hr 0.02 in0.5 mm
05:15 AM 48.8°F9.3°C 48.2°F9.0°C 98% 4.0 mph N6.4 kmh N 7.0 mph11.3 kmh 29.64 in1003.7 mb 0.02 in0.5 mm 0.00 in/hr0.0 mm/hr 0.02 in0.5 mm
05:10 AM 48.8°F9.3°C 48.2°F9.0°C 98% 2.0 mph WNW3.2 kmh WNW 9.0 mph14.5 kmh 29.64 in1003.7 mb 0.02 in0.5 mm 0.00 in/hr0.0 mm/hr 0.02 in0.5 mm
05:05 AM 48.8°F9.3°C 48.2°F9.0°C 98% 8.0 mph N12.9 kmh N 8.0 mph12.9 kmh 29.64 in1003.7 mb 0.02 in0.5 mm 0.00 in/hr0.0 mm/hr 0.02 in0.5 mm
05:00 AM 48.8°F9.3°C 48.2°F9.0°C 98% 3.0 mph NW4.8 kmh NW 8.0 mph12.9 kmh 29.64 in1003.7 mb 0.02 in0.5 mm 0.00 in/hr0.0 mm/hr 0.02 in0.5 mm
04:55 AM 48.8°F9.3°C 48.2°F9.0°C 98% 4.0 mph NNW6.4 kmh NNW 10.0 mph16.1 kmh 29.64 in1003.7 mb 0.02 in0.5 mm 0.12 in/hr3.0 mm/hr 0.02 in0.5 mm
04:50 AM 48.9°F9.4°C 48.3°F9.1°C 98% 3.0 mph NW4.8 kmh NW 8.0 mph12.9 kmh 29.64 in1003.7 mb 0.01 in0.3 mm 0.00 in/hr0.0 mm/hr 0.01 in0.3 mm
04:45 AM 48.9°F9.4°C 48.3°F9.1°C 98% 1.0 mph NW1.6 kmh NW 7.0 mph11.3 kmh 29.64 in1003.7 mb 0.01 in0.3 mm 0.00 in/hr0.0 mm/hr 0.01 in0.3 mm
04:40 AM 48.9°F9.4°C 48.3°F9.1°C 98% 3.0 mph NW4.8 kmh NW 8.0 mph12.9 kmh 29.64 in1003.7 mb 0.01 in0.3 mm 0.00 in/hr0.0 mm/hr 0.01 in0.3 mm
04:35 AM 49.1°F9.5°C 48.5°F9.2°C 98% 3.0 mph N4.8 kmh N 11.0 mph17.7 kmh 29.64 in1003.7 mb 0.01 in0.3 mm 0.00 in/hr0.0 mm/hr 0.01 in0.3 mm
04:30 AM 49.1°F9.5°C 48.5°F9.2°C 98% 6.0 mph NW9.7 kmh NW 11.0 mph17.7 kmh 29.64 in1003.7 mb 0.01 in0.3 mm 0.00 in/hr0.0 mm/hr 0.01 in0.3 mm
04:25 AM 49.1°F9.5°C 48.5°F9.2°C 98% Calm Calm 7.0 mph11.3 kmh 29.64 in1003.7 mb 0.01 in0.3 mm 0.00 in/hr0.0 mm/hr 0.01 in0.3 mm
04:20 AM 49.1°F9.5°C 48.5°F9.2°C 98% 3.0 mph NW4.8 kmh NW 6.0 mph9.7 kmh 29.64 in1003.7 mb 0.01 in0.3 mm 0.12 in/hr3.0 mm/hr 0.01 in0.3 mm
04:15 AM 49.2°F9.6°C 48.6°F9.2°C 98% 4.0 mph WNW6.4 kmh WNW 7.0 mph11.3 kmh 29.64 in1003.7 mb 0.00 in0.0 mm 0.00 in/hr0.0 mm/hr 0.04 in1.0 mm
04:10 AM 49.2°F9.6°C 48.6°F9.2°C 98% Calm Calm 6.0 mph9.7 kmh 29.64 in1003.7 mb 0.01 in0.3 mm 0.00 in/hr0.0 mm/hr 0.04 in1.0 mm
04:05 AM 49.2°F9.6°C 48.6°F9.2°C 98% 2.0 mph NW3.2 kmh NW 9.0 mph14.5 kmh 29.64 in1003.7 mb 0.01 in0.3 mm 0.00 in/hr0.0 mm/hr 0.04 in1.0 mm
04:00 AM 49.2°F9.6°C 48.6°F9.2°C 98% 5.0 mph N8.0 kmh N 14.0 mph22.5 kmh 29.64 in1003.7 mb 0.01 in0.3 mm 0.00 in/hr0.0 mm/hr 2.44 in62.0 mm
03:55 AM 49.2°F9.6°C 48.6°F9.2°C 98% 2.0 mph N3.2 kmh N 9.0 mph14.5 kmh 29.64 in1003.7 mb 0.01 in0.3 mm 0.00 in/hr0.0 mm/hr 2.44 in62.0 mm
03:50 AM 49.4°F9.7°C 48.8°F9.3°C 98% Calm Calm 6.0 mph9.7 kmh 29.64 in1003.7 mb 0.01 in0.3 mm 0.00 in/hr0.0 mm/hr 2.44 in62.0 mm
03:45 AM 49.4°F9.7°C 48.8°F9.3°C 98% Calm Calm 2.0 mph3.2 kmh 29.64 in1003.7 mb 0.01 in0.3 mm 0.00 in/hr0.0 mm/hr 2.44 in62.0 mm
03:40 AM 49.4°F9.7°C 48.8°F9.3°C 98% Calm Calm 4.0 mph6.4 kmh 29.64 in1003.7 mb 0.01 in0.3 mm 0.00 in/hr0.0 mm/hr 2.44 in62.0 mm
03:35 AM 49.4°F9.7°C 48.8°F9.3°C 98% 1.0 mph NNW1.6 kmh NNW 8.0 mph12.9 kmh 29.64 in1003.7 mb 0.01 in0.3 mm 0.00 in/hr0.0 mm/hr 2.44 in62.0 mm
03:30 AM 49.4°F9.7°C 48.8°F9.3°C 98% 3.0 mph NW4.8 kmh NW 10.0 mph16.1 kmh 29.64 in1003.7 mb 0.01 in0.3 mm 0.00 in/hr0.0 mm/hr 2.44 in62.0 mm
03:25 AM 49.4°F9.7°C 48.8°F9.3°C 98% 3.0 mph NW4.8 kmh NW 8.0 mph12.9 kmh 29.65 in1004.1 mb 0.02 in0.5 mm 0.00 in/hr0.0 mm/hr 2.44 in62.0 mm
03:20 AM 49.5°F9.7°C 48.9°F9.4°C 98% 1.0 mph W1.6 kmh W 9.0 mph14.5 kmh 29.65 in1004.1 mb 0.02 in0.5 mm 0.00 in/hr0.0 mm/hr 2.44 in62.0 mm
03:15 AM 49.5°F9.7°C 48.9°F9.4°C 98% 2.0 mph NW3.2 kmh NW 4.0 mph6.4 kmh 29.65 in1004.1 mb 0.02 in0.5 mm 0.12 in/hr3.0 mm/hr 2.44 in62.0 mm
03:10 AM 49.5°F9.7°C 48.9°F9.4°C 98% 2.0 mph NW3.2 kmh NW 6.0 mph9.7 kmh 29.64 in1003.7 mb 0.01 in0.3 mm 0.00 in/hr0.0 mm/hr 2.43 in61.7 mm
03:05 AM 49.5°F9.7°C 48.9°F9.4°C 98% Calm Calm 10.0 mph16.1 kmh 29.64 in1003.7 mb 0.01 in0.3 mm 0.00 in/hr0.0 mm/hr 2.43 in61.7 mm
03:00 AM 49.5°F9.7°C 48.9°F9.4°C 98% 2.0 mph N3.2 kmh N 8.0 mph12.9 kmh 29.64 in1003.7 mb 0.01 in0.3 mm 0.00 in/hr0.0 mm/hr 2.43 in61.7 mm
02:55 AM 49.6°F9.8°C 49.0°F9.4°C 98% 2.0 mph E3.2 kmh E 8.0 mph12.9 kmh 29.64 in1003.7 mb 0.01 in0.3 mm 0.00 in/hr0.0 mm/hr 2.43 in61.7 mm
02:50 AM 49.6°F9.8°C 49.0°F9.4°C 98% 3.0 mph N4.8 kmh N 7.0 mph11.3 kmh 29.64 in1003.7 mb 0.01 in0.3 mm 0.00 in/hr0.0 mm/hr 2.43 in61.7 mm
02:45 AM 49.6°F9.8°C 49.0°F9.4°C 98% Calm Calm 4.0 mph6.4 kmh 29.64 in1003.7 mb 0.01 in0.3 mm 0.00 in/hr0.0 mm/hr 2.43 in61.7 mm
02:40 AM 49.6°F9.8°C 49.0°F9.4°C 98% Calm Calm 6.0 mph9.7 kmh 29.64 in1003.7 mb 0.02 in0.5 mm 0.00 in/hr0.0 mm/hr 2.43 in61.7 mm
02:35 AM 49.6°F9.8°C 49.0°F9.4°C 98% 2.0 mph NW3.2 kmh NW 12.0 mph19.3 kmh 29.64 in1003.7 mb 0.02 in0.5 mm 0.00 in/hr0.0 mm/hr 2.43 in61.7 mm
02:30 AM 49.6°F9.8°C 49.0°F9.4°C 98% 4.0 mph N6.4 kmh N 10.0 mph16.1 kmh 29.64 in1003.7 mb 0.02 in0.5 mm 0.12 in/hr3.0 mm/hr 2.43 in61.7 mm
02:25 AM 49.6°F9.8°C 49.0°F9.4°C 98% 4.0 mph NW6.4 kmh NW 6.0 mph9.7 kmh 29.65 in1004.1 mb 0.01 in0.3 mm 0.00 in/hr0.0 mm/hr 2.42 in61.5 mm
02:20 AM 49.6°F9.8°C 49.0°F9.4°C 98% 6.0 mph NW9.7 kmh NW 7.0 mph11.3 kmh 29.65 in1004.1 mb 0.01 in0.3 mm 0.00 in/hr0.0 mm/hr 2.42 in61.5 mm
02:15 AM 49.8°F9.9°C 49.2°F9.6°C 98% Calm Calm 8.0 mph12.9 kmh 29.65 in1004.1 mb 0.01 in0.3 mm 0.00 in/hr0.0 mm/hr 2.42 in61.5 mm
02:10 AM 49.8°F9.9°C 49.2°F9.6°C 98% Calm Calm 9.0 mph14.5 kmh 29.65 in1004.1 mb 0.01 in0.3 mm 0.00 in/hr0.0 mm/hr 2.42 in61.5 mm
02:05 AM 49.8°F9.9°C 49.2°F9.6°C 98% 9.0 mph N14.5 kmh N 10.0 mph16.1 kmh 29.65 in1004.1 mb 0.01 in0.3 mm 0.00 in/hr0.0 mm/hr 2.42 in61.5 mm
02:00 AM 49.8°F9.9°C 49.2°F9.6°C 98% 2.0 mph NNE3.2 kmh NNE 7.0 mph11.3 kmh 29.65 in1004.1 mb 0.01 in0.3 mm 0.00 in/hr0.0 mm/hr 2.42 in61.5 mm
01:55 AM 49.8°F9.9°C 48.9°F9.4°C 97% Calm Calm 8.0 mph12.9 kmh 29.65 in1004.1 mb 0.01 in0.3 mm 0.00 in/hr0.0 mm/hr 2.42 in61.5 mm
01:50 AM 49.8°F9.9°C 48.9°F9.4°C 97% Calm Calm 7.0 mph11.3 kmh 29.65 in1004.1 mb 0.01 in0.3 mm 0.00 in/hr0.0 mm/hr 2.42 in61.5 mm
01:45 AM 49.9°F9.9°C 49.0°F9.4°C 97% 7.0 mph NNW11.3 kmh NNW 9.0 mph14.5 kmh 29.65 in1004.1 mb 0.01 in0.3 mm 0.12 in/hr3.0 mm/hr 2.42 in61.5 mm
01:40 AM 49.9°F9.9°C 49.0°F9.4°C 97% 1.0 mph NW1.6 kmh NW 7.0 mph11.3 kmh 29.65 in1004.1 mb 0.00 in0.0 mm 0.00 in/hr0.0 mm/hr 2.41 in61.2 mm
01:35 AM 49.9°F9.9°C 49.0°F9.4°C 97% 3.0 mph WNW4.8 kmh WNW 9.0 mph14.5 kmh 29.65 in1004.1 mb 0.00 in0.0 mm 0.00 in/hr0.0 mm/hr 2.41 in61.2 mm
01:30 AM 49.9°F9.9°C 49.0°F9.4°C 97% 1.0 mph NW1.6 kmh NW 6.0 mph9.7 kmh 29.65 in1004.1 mb 0.00 in0.0 mm 0.00 in/hr0.0 mm/hr 2.41 in61.2 mm
01:25 AM 49.9°F9.9°C 49.0°F9.4°C 97% 1.0 mph N1.6 kmh N 7.0 mph11.3 kmh 29.65 in1004.1 mb 0.00 in0.0 mm 0.00 in/hr0.0 mm/hr 2.41 in61.2 mm
01:20 AM 50.1°F10.1°C 49.2°F9.6°C 97% 1.0 mph N1.6 kmh N 12.0 mph19.3 kmh 29.65 in1004.1 mb 0.00 in0.0 mm 0.00 in/hr0.0 mm/hr 2.41 in61.2 mm
01:15 AM 50.1°F10.1°C 49.2°F9.6°C 97% 4.0 mph NNW6.4 kmh NNW 10.0 mph16.1 kmh 29.65 in1004.1 mb 0.00 in0.0 mm 0.00 in/hr0.0 mm/hr 2.41 in61.2 mm
01:10 AM 50.1°F10.1°C 49.2°F9.6°C 97% 3.0 mph NW4.8 kmh NW 6.0 mph9.7 kmh 29.65 in1004.1 mb 0.00 in0.0 mm 0.00 in/hr0.0 mm/hr 2.41 in61.2 mm
01:05 AM 50.1°F10.1°C 49.2°F9.6°C 97% Calm Calm 9.0 mph14.5 kmh 29.65 in1004.1 mb 0.00 in0.0 mm 0.00 in/hr0.0 mm/hr 2.41 in61.2 mm
01:00 AM 50.2°F10.1°C 49.3°F9.6°C 97% 2.0 mph NW3.2 kmh NW 12.0 mph19.3 kmh 29.65 in1004.1 mb 0.00 in0.0 mm 0.00 in/hr0.0 mm/hr 2.41 in61.2 mm
12:55 AM 50.2°F10.1°C 49.3°F9.6°C 97% Calm Calm 7.0 mph11.3 kmh 29.65 in1004.1 mb 0.01 in0.3 mm 0.00 in/hr0.0 mm/hr 2.41 in61.2 mm
12:50 AM 50.2°F10.1°C 49.3°F9.6°C 97% 7.0 mph NW11.3 kmh NW 9.0 mph14.5 kmh 29.65 in1004.1 mb 0.01 in0.3 mm 0.00 in/hr0.0 mm/hr 2.41 in61.2 mm
12:45 AM 50.2°F10.1°C 49.3°F9.6°C 97% 2.0 mph ENE3.2 kmh ENE 8.0 mph12.9 kmh 29.65 in1004.1 mb 0.01 in0.3 mm 0.00 in/hr0.0 mm/hr 2.41 in61.2 mm
12:40 AM 50.4°F10.2°C 49.5°F9.7°C 97% Calm Calm 7.0 mph11.3 kmh 29.65 in1004.1 mb 0.01 in0.3 mm 0.00 in/hr0.0 mm/hr 2.41 in61.2 mm
12:35 AM 50.4°F10.2°C 49.5°F9.7°C 97% Calm Calm 11.0 mph17.7 kmh 29.65 in1004.1 mb 0.01 in0.3 mm 0.00 in/hr0.0 mm/hr 2.41 in61.2 mm
12:30 AM 50.4°F10.2°C 49.5°F9.7°C 97% 6.0 mph N9.7 kmh N 9.0 mph14.5 kmh 29.65 in1004.1 mb 0.01 in0.3 mm 0.00 in/hr0.0 mm/hr 2.41 in61.2 mm
12:25 AM 50.4°F10.2°C 49.5°F9.7°C 97% 7.0 mph NNW11.3 kmh NNW 10.0 mph16.1 kmh 29.65 in1004.1 mb 0.01 in0.3 mm 0.00 in/hr0.0 mm/hr 2.41 in61.2 mm
12:20 AM 50.4°F10.2°C 49.5°F9.7°C 97% 3.0 mph NE4.8 kmh NE 8.0 mph12.9 kmh 29.65 in1004.1 mb 0.01 in0.3 mm 0.00 in/hr0.0 mm/hr 2.41 in61.2 mm
12:15 AM 50.5°F10.3°C 49.6°F9.8°C 97% 6.0 mph NNW9.7 kmh NNW 10.0 mph16.1 kmh 29.65 in1004.1 mb 0.01 in0.3 mm 0.00 in/hr0.0 mm/hr 2.41 in61.2 mm
12:10 AM 50.5°F10.3°C 49.6°F9.8°C 97% 5.0 mph N8.0 kmh N 11.0 mph17.7 kmh 29.64 in1003.7 mb 0.01 in0.3 mm 0.00 in/hr0.0 mm/hr 2.41 in61.2 mm
12:05 AM 50.5°F10.3°C 49.6°F9.8°C 97% 3.0 mph NW4.8 kmh NW 6.0 mph9.7 kmh 29.64 in1003.7 mb 0.01 in0.3 mm 0.00 in/hr0.0 mm/hr 2.41 in61.2 mm
12:00 AM 50.7°F10.4°C 49.8°F9.9°C 97% Calm Calm 6.0 mph9.7 kmh 29.64 in1003.7 mb 0.01 in0.3 mm 0.00 in/hr0.0 mm/hr 2.41 in61.2 mm